Time;durP1;ratioP1;P1;durP2;ratioP2;P2;SDS_P1;SDS_P2;PMS_P1;PMS_P2;Temp;Humidity;BMP_temperature;BMP_pressure;BME280_temperature;BME280_humidity;BME280_pressure;Samples;Min_cycle;Max_cycle;Signal;HPM_P1;HPM_P2
2021/07/22 00:01:54;;;;;;;5.13;2.45;;;;;;;16.12;61.19;99107.13;5051832;28;20057;-55
2021/07/22 00:04:19;;;;;;;3.25;2.08;;;;;;;16.10;61.54;99102.94;5051667;28;20112;-53
2021/07/22 00:06:45;;;;;;;6.10;2.20;;;;;;;16.08;61.51;99113.91;5051339;28;20029;-49
2021/07/22 00:09:10;;;;;;;3.10;2.33;;;;;;;16.06;61.62;99107.84;5050719;28;20033;-49
2021/07/22 00:11:36;;;;;;;2.83;2.10;;;;;;;16.05;61.62;99115.13;5051523;28;20179;-50
2021/07/22 00:14:01;;;;;;;3.38;1.90;;;;;;;16.03;61.76;99109.03;5050979;28;20055;-49
2021/07/22 00:16:27;;;;;;;6.07;2.30;;;;;;;16.02;61.94;99115.44;5051611;28;20029;-51
2021/07/22 00:18:52;;;;;;;8.48;2.22;;;;;;;16.01;61.95;99119.16;5051518;28;20422;-53
2021/07/22 00:21:17;;;;;;;3.42;2.10;;;;;;;15.99;62.18;99115.81;5050945;28;20069;-52
2021/07/22 00:23:43;;;;;;;3.72;2.40;;;;;;;15.96;62.05;99118.88;5050302;28;20036;-52
2021/07/22 00:26:08;;;;;;;4.15;2.05;;;;;;;15.93;62.28;99120.06;5051242;28;20532;-53
2021/07/22 00:28:34;;;;;;;2.70;1.90;;;;;;;15.92;62.35;99117.53;5050876;28;20033;-51
2021/07/22 00:30:59;;;;;;;3.03;2.00;;;;;;;15.91;62.48;99110.47;5049737;28;20098;-52
2021/07/22 00:33:25;;;;;;;3.97;1.67;;;;;;;15.91;62.55;99123.97;5051063;28;20045;-54
2021/07/22 00:35:53;;;;;;;2.42;2.05;;;;;;;15.88;62.91;99129.69;5051045;28;20104;-50
2021/07/22 00:38:18;;;;;;;3.58;2.50;;;;;;;15.84;63.03;99129.19;5050728;28;20449;-54
2021/07/22 00:40:47;;;;;;;4.20;2.35;;;;;;;15.86;62.94;99137.94;5049959;28;20437;-56
2021/07/22 00:43:13;;;;;;;4.30;2.00;;;;;;;15.82;63.40;99135.78;5051097;28;20037;-51
2021/07/22 00:45:38;;;;;;;2.72;2.08;;;;;;;15.78;63.63;99138.81;5050794;28;20029;-55
2021/07/22 00:48:04;;;;;;;3.97;2.10;;;;;;;15.75;63.70;99136.47;5050979;28;20048;-53
2021/07/22 00:50:31;;;;;;;3.67;2.22;;;;;;;15.72;63.87;99144.09;5050914;28;20025;-48
2021/07/22 00:52:58;;;;;;;3.70;2.00;;;;;;;15.72;63.99;99144.09;5050576;28;20111;-49
2021/07/22 00:55:26;;;;;;;4.70;1.95;;;;;;;15.68;64.15;99146.28;5050263;28;20029;-51
2021/07/22 00:57:52;;;;;;;2.38;1.70;;;;;;;15.61;64.13;99138.03;5051118;28;20029;-50
2021/07/22 01:00:18;;;;;;;6.45;2.22;;;;;;;15.61;64.30;99140.72;5051150;28;20040;-53
2021/07/22 01:02:43;;;;;;;3.38;2.10;;;;;;;15.58;64.39;99151.03;5051268;28;20043;-53
2021/07/22 01:05:09;;;;;;;3.55;2.40;;;;;;;15.56;64.68;99148.50;5050564;28;20033;-53
2021/07/22 01:07:36;;;;;;;4.75;2.25;;;;;;;15.54;64.76;99144.28;5050375;28;20511;-54
2021/07/22 01:10:01;;;;;;;5.45;2.10;;;;;;;15.51;64.78;99140.09;5050839;28;20028;-54
2021/07/22 01:12:27;;;;;;;7.72;2.42;;;;;;;15.53;64.78;99148.84;5050483;28;20043;-53
2021/07/22 01:14:52;;;;;;;3.40;2.60;;;;;;;15.54;64.31;99144.28;5050457;28;20433;-52
2021/07/22 01:17:57;;;;;;;3.95;2.58;;;;;;;15.68;64.42;99165.16;5050959;28;20155;-47
2021/07/22 01:20:24;;;;;;;4.72;2.70;;;;;;;15.55;64.56;99164.84;5037720;28;20030;-50
2021/07/22 01:22:52;;;;;;;9.00;3.47;;;;;;;15.21;64.55;99104.78;5028362;28;20120;-53
2021/07/22 01:25:19;;;;;;;5.75;3.15;;;;;;;15.50;64.61;99160.00;5038539;28;20139;-50
2021/07/22 01:27:45;;;;;;;6.18;3.53;;;;;;;15.47;64.82;99155.78;5050786;28;20041;-54
2021/07/22 01:30:12;;;;;;;5.47;2.90;;;;;;;15.48;64.47;99172.81;5049726;28;20174;-54
2021/07/22 01:32:38;;;;;;;7.00;3.00;;;;;;;15.44;64.34;99161.53;5050417;28;20125;-49
2021/07/22 01:35:05;;;;;;;8.15;2.55;;;;;;;15.45;64.35;99165.06;5050467;28;20136;-50
2021/07/22 01:37:30;;;;;;;5.45;2.85;;;;;;;15.43;63.69;99165.22;5050969;28;20025;-50
2021/07/22 01:39:56;;;;;;;4.38;2.35;;;;;;;15.42;63.38;99166.25;5050833;28;20024;-55
2021/07/22 01:42:21;;;;;;;7.10;2.60;;;;;;;15.49;63.20;99169.09;5050083;28;20067;-52
2021/07/22 01:44:47;;;;;;;5.80;2.35;;;;;;;15.50;62.96;99170.78;5050064;28;20036;-50
2021/07/22 01:47:12;;;;;;;7.97;2.58;;;;;;;15.52;62.63;99168.75;5050897;28;20033;-52
2021/07/22 01:49:38;;;;;;;4.60;2.47;;;;;;;15.52;62.37;99178.69;5050285;28;20045;-49
2021/07/22 01:52:07;;;;;;;4.18;2.05;;;;;;;15.51;62.22;99172.47;5050008;28;20595;-51
2021/07/22 01:54:33;;;;;;;6.15;2.78;;;;;;;15.50;61.65;99173.50;5050149;28;20468;-51
2021/07/22 01:57:00;;;;;;;7.32;2.67;;;;;;;15.53;61.67;99172.28;5050381;28;20029;-51
2021/07/22 01:59:26;;;;;;;6.82;2.60;;;;;;;15.53;61.39;99173.13;5050135;28;20033;-50
2021/07/22 02:01:51;;;;;;;4.15;2.55;;;;;;;15.54;61.13;99177.53;5052585;28;20033;-49
2021/07/22 02:04:17;;;;;;;4.50;2.75;;;;;;;15.53;61.13;99159.66;5053896;28;20035;-52
2021/07/22 02:06:42;;;;;;;4.65;2.30;;;;;;;15.58;60.74;99156.44;5054308;28;20369;-50
2021/07/22 02:09:08;;;;;;;3.33;2.40;;;;;;;15.57;60.16;99158.28;5053665;28;20029;-53
2021/07/22 02:11:33;;;;;;;5.38;2.33;;;;;;;15.54;60.35;99155.94;5053670;28;20075;-48
2021/07/22 02:13:59;;;;;;;4.55;1.85;;;;;;;15.65;60.01;99170.91;5053950;28;20380;-52
2021/07/22 02:16:24;;;;;;;3.85;1.70;;;;;;;15.64;59.47;99166.53;5053603;28;20028;-52
2021/07/22 02:18:50;;;;;;;5.30;2.10;;;;;;;15.74;59.08;99179.84;5053748;28;20457;-54
2021/07/22 02:21:16;;;;;;;5.03;1.98;;;;;;;15.83;58.39;99173.38;5053666;28;20036;-54
2021/07/22 02:23:41;;;;;;;6.80;1.90;;;;;;;15.93;58.32;99171.38;5053834;28;20033;-50
2021/07/22 02:26:08;;;;;;;4.15;1.73;;;;;;;16.12;57.78;99190.84;5053275;28;20365;-52
2021/07/22 02:28:34;;;;;;;4.40;1.70;;;;;;;16.26;56.85;99185.72;5053829;28;20534;-50
2021/07/22 02:31:01;;;;;;;2.38;1.40;;;;;;;16.37;56.51;99188.03;5053043;28;20032;-49
2021/07/22 02:33:26;;;;;;;3.30;1.73;;;;;;;16.50;56.02;99182.03;5053308;28;20044;-51
2021/07/22 02:35:52;;;;;;;2.25;1.50;;;;;;;16.64;55.10;99177.75;5053808;28;20370;-51
2021/07/22 02:38:18;;;;;;;2.60;1.27;;;;;;;16.81;54.17;99180.31;5053397;28;20457;-53
2021/07/22 02:40:44;;;;;;;2.67;1.30;;;;;;;16.86;54.06;99180.59;5053041;28;20111;-50
2021/07/22 02:43:11;;;;;;;1.50;1.15;;;;;;;16.68;53.68;99162.84;5053448;28;20028;-54
2021/07/22 02:45:37;;;;;;;2.97;1.00;;;;;;;16.87;53.92;99193.09;5053624;28;20043;-55
2021/07/22 02:48:04;;;;;;;2.67;1.27;;;;;;;16.79;53.90;99192.16;5053010;28;20029;-53
2021/07/22 02:50:29;;;;;;;1.85;1.23;;;;;;;16.72;53.77;99196.59;5053202;28;20033;-52
2021/07/22 02:52:55;;;;;;;1.92;1.50;;;;;;;16.61;54.02;99200.56;5052741;28;20488;-50
2021/07/22 02:55:20;;;;;;;2.08;1.23;;;;;;;16.58;54.14;99200.06;5053347;28;20090;-52
2021/07/22 02:57:46;;;;;;;3.13;1.30;;;;;;;16.55;54.13;99197.72;5052576;28;20128;-49
2021/07/22 03:00:12;;;;;;;1.67;1.15;;;;;;;16.55;53.31;99203.97;5053124;28;20124;-48
2021/07/22 03:02:37;;;;;;;3.20;1.20;;;;;;;16.48;53.27;99211.09;5053086;28;20494;-51
2021/07/22 03:05:04;;;;;;;3.17;1.15;;;;;;;16.41;53.03;99202.03;5053312;28;20085;-50
2021/07/22 03:07:30;;;;;;;1.48;0.90;;;;;;;16.39;52.86;99213.00;5052294;28;20025;-52
2021/07/22 03:09:55;;;;;;;3.05;1.00;;;;;;;16.37;52.72;99196.13;5052575;28;20483;-53
2021/07/22 03:12:21;;;;;;;4.25;1.00;;;;;;;16.48;52.43;99211.09;5052060;28;20370;-53
2021/07/22 03:14:46;;;;;;;1.77;1.00;;;;;;;16.48;51.93;99221.91;5053057;28;20039;-54
2021/07/22 03:17:11;;;;;;;0.98;0.75;;;;;;;16.47;51.79;99220.22;5052559;28;20039;-50
2021/07/22 03:19:37;;;;;;;3.35;0.73;;;;;;;16.47;51.74;99226.47;5052046;28;20040;-52
2021/07/22 03:22:03;;;;;;;2.80;0.70;;;;;;;16.50;51.39;99226.13;5052541;28;20120;-52
2021/07/22 03:24:28;;;;;;;1.75;0.82;;;;;;;16.58;51.42;99222.53;5052744;28;20032;-52
2021/07/22 03:26:53;;;;;;;3.10;1.10;;;;;;;16.78;50.59;99224.78;5052380;28;20032;-53
2021/07/22 03:29:19;;;;;;;2.92;0.82;;;;;;;17.10;49.66;99228.28;5052386;28;20382;-49
2021/07/22 03:31:44;;;;;;;1.65;0.77;;;;;;;17.57;48.15;99210.09;5052332;28;20467;-51
2021/07/22 03:34:10;;;;;;;4.13;1.00;;;;;;;18.20;46.55;99227.88;5052730;28;20047;-50
2021/07/22 03:36:35;;;;;;;1.23;0.95;;;;;;;18.79;44.81;99224.19;5052392;28;20059;-53
2021/07/22 03:39:05;;;;;;;3.22;0.80;;;;;;;19.39;43.45;99225.00;5051792;28;20639;-48
2021/07/22 03:41:30;;;;;;;1.23;0.70;;;;;;;20.06;41.57;99220.06;5051902;28;20056;-49
2021/07/22 03:43:56;;;;;;;1.13;0.77;;;;;;;20.59;40.19;99218.59;5052172;28;20059;-51
2021/07/22 03:46:22;;;;;;;2.58;0.85;;;;;;;21.06;38.86;99225.00;5052019;28;20048;-49
2021/07/22 03:48:48;;;;;;;1.38;0.90;;;;;;;21.69;37.80;99222.94;5051625;28;20033;-50
2021/07/22 03:51:13;;;;;;;3.17;0.70;;;;;;;22.14;36.08;99205.84;5051875;28;20037;-50
2021/07/22 03:53:39;;;;;;;2.53;0.68;;;;;;;22.94;34.95;99221.00;5051701;28;20524;-51
2021/07/22 03:56:04;;;;;;;1.30;0.68;;;;;;;23.82;32.69;99228.50;5049872;28;20507;-54
2021/07/22 03:58:30;;;;;;;0.95;0.70;;;;;;;24.46;31.17;99205.50;5049790;28;20263;-52
2021/07/22 04:00:57;;;;;;;2.55;0.90;;;;;;;25.03;30.51;99227.03;5051502;28;20060;-50
2021/07/22 04:03:38;;;;;;;2.17;0.65;;;;;;;25.40;29.64;99230.69;5050907;28;20376;-52
2021/07/22 04:06:03;;;;;;;4.40;0.88;;;;;;;25.75;28.95;99221.66;5051291;28;20060;-50
2021/07/22 04:08:29;;;;;;;2.00;0.85;;;;;;;26.04;28.45;99224.50;5050418;28;20061;-48
2021/07/22 04:10:54;;;;;;;4.47;0.70;;;;;;;26.30;27.82;99222.34;5051013;28;20032;-53
2021/07/22 04:13:20;;;;;;;1.30;0.73;;;;;;;26.60;26.86;99199.34;5050441;28;20050;-49
2021/07/22 04:15:45;;;;;;;1.83;0.60;;;;;;;27.18;26.21;99199.28;5051752;28;20391;-56
2021/07/22 04:18:10;;;;;;;1.55;0.90;;;;;;;27.89;25.75;99223.50;5051660;28;20091;-52
2021/07/22 04:20:36;;;;;;;3.13;0.75;;;;;;;28.54;24.29;99217.44;5051048;28;20117;-51
2021/07/22 04:23:01;;;;;;;3.13;1.23;;;;;;;29.40;23.21;99215.00;5051224;28;20437;-52
2021/07/22 04:25:27;;;;;;;0.75;0.70;;;;;;;29.64;22.46;99214.66;5050099;28;20050;-54
2021/07/22 04:27:53;;;;;;;2.03;0.65;;;;;;;30.25;21.77;99226.31;5050777;28;20021;-51
2021/07/22 04:30:18;;;;;;;1.92;0.75;;;;;;;31.20;20.71;99219.69;5051397;28;20068;-54
2021/07/22 04:32:47;;;;;;;1.60;0.60;;;;;;;31.91;19.83;99222.69;5051494;28;20045;-54
2021/07/22 04:35:13;;;;;;;2.65;1.17;;;;;;;32.49;19.31;99218.59;5051329;28;20035;-51
2021/07/22 04:37:39;;;;;;;4.10;0.85;;;;;;;32.78;18.52;99217.88;5051025;28;20461;-53
2021/07/22 04:40:08;;;;;;;2.13;0.70;;;;;;;32.82;18.78;99228.41;5051572;28;20449;-53
2021/07/22 04:42:35;;;;;;;2.00;0.73;;;;;;;33.10;18.35;99228.78;5051009;28;20035;-51
2021/07/22 04:45:01;;;;;;;1.17;0.60;;;;;;;33.42;17.99;99230.19;5050787;28;20120;-54
2021/07/22 04:47:26;;;;;;;3.42;0.90;;;;;;;33.91;17.10;99234.72;5051076;28;20477;-55
2021/07/22 04:49:52;;;;;;;1.95;0.75;;;;;;;34.55;16.76;99233.72;5051017;28;20029;-54
2021/07/22 04:52:17;;;;;;;1.15;0.82;;;;;;;35.15;16.13;99231.50;5050555;28;20029;-55
2021/07/22 04:54:43;;;;;;;2.00;0.70;;;;;;;34.97;16.36;99233.16;5050671;28;20033;-55
2021/07/22 04:57:08;;;;;;;1.50;0.80;;;;;;;34.66;16.25;99237.19;5051029;28;20025;-55
2021/07/22 04:59:34;;;;;;;3.97;0.68;;;;;;;35.13;15.93;99226.25;5051383;28;20029;-50
2021/07/22 05:02:00;;;;;;;0.73;0.68;;;;;;;35.83;15.12;99226.44;5050573;28;20039;-50
2021/07/22 05:04:25;;;;;;;1.42;1.00;;;;;;;35.99;14.86;99229.75;5050520;28;20036;-49
2021/07/22 05:06:50;;;;;;;4.10;1.17;;;;;;;36.31;14.45;99232.75;5049292;28;20444;-51
2021/07/22 05:09:16;;;;;;;3.15;0.88;;;;;;;36.65;13.82;99239.03;5044413;28;20533;-52
2021/07/22 05:11:41;;;;;;;1.17;0.80;;;;;;;36.64;14.15;99238.19;5031053;28;20044;-50
2021/07/22 05:14:07;;;;;;;2.45;0.80;;;;;;;37.02;13.77;99246.28;5030318;28;20087;-50
2021/07/22 05:16:33;;;;;;;2.58;1.05;;;;;;;37.39;13.43;99246.22;5029846;28;20029;-50
2021/07/22 05:18:59;;;;;;;4.70;1.00;;;;;;;37.91;12.67;99236.50;5034140;28;20056;-51
2021/07/22 05:21:24;;;;;;;4.93;0.98;;;;;;;37.95;12.58;99223.53;5039825;28;20056;-54
2021/07/22 05:23:50;;;;;;;2.63;0.60;;;;;;;37.78;12.77;99238.25;5040474;28;20044;-56
2021/07/22 05:26:16;;;;;;;2.08;0.70;;;;;;;37.81;12.65;99240.41;5038321;28;20041;-58
2021/07/22 05:28:42;;;;;;;2.17;0.75;;;;;;;38.67;11.93;99236.59;5040441;28;20021;-54
2021/07/22 05:31:09;;;;;;;2.10;0.93;;;;;;;39.86;11.45;99241.97;5040289;28;20094;-50
2021/07/22 05:33:35;;;;;;;1.05;0.80;;;;;;;40.45;10.53;99245.97;5038694;28;20887;-55
2021/07/22 05:36:06;;;;;;;2.42;0.85;;;;;;;41.03;10.25;99253.00;5041375;28;20092;-55
2021/07/22 05:38:32;;;;;;;2.90;0.80;;;;;;;40.38;10.48;99248.50;5044963;28;20045;-54
2021/07/22 05:40:59;;;;;;;2.30;1.10;;;;;;;40.38;10.61;99251.28;5041639;28;20029;-51
2021/07/22 05:43:26;;;;;;;2.65;0.88;;;;;;;40.44;10.39;99243.50;5043265;28;20114;-51
2021/07/22 05:45:52;;;;;;;2.53;1.00;;;;;;;40.52;9.97;99234.22;5044415;28;20032;-55
2021/07/22 05:48:18;;;;;;;1.45;1.00;;;;;;;40.66;9.99;99239.56;5042167;28;20022;-50
2021/07/22 05:50:43;;;;;;;2.92;0.90;;;;;;;41.39;9.61;99242.28;5053839;28;20183;-49
2021/07/22 05:53:09;;;;;;;3.90;0.70;;;;;;;42.32;8.67;99243.84;5053617;28;20082;-51
2021/07/22 05:55:34;;;;;;;2.97;0.90;;;;;;;43.16;8.48;99233.09;5053626;28;20112;-53
2021/07/22 05:57:59;;;;;;;2.53;1.00;;;;;;;43.71;7.62;99238.25;5053853;28;20033;-52
2021/07/22 06:00:25;;;;;;;2.72;0.70;;;;;;;44.40;7.33;99235.13;5052576;28;20158;-50
2021/07/22 06:02:50;;;;;;;3.13;0.90;;;;;;;44.91;6.59;99233.41;5053620;28;20468;-52
2021/07/22 06:05:18;;;;;;;2.08;0.70;;;;;;;45.49;6.38;99245.09;5053832;28;20408;-51
2021/07/22 06:07:44;;;;;;;2.42;0.88;;;;;;;45.63;6.32;99248.16;5053253;28;20115;-54
2021/07/22 06:10:10;;;;;;;5.22;1.00;;;;;;;45.99;6.46;99248.81;5053652;28;20476;-55
2021/07/22 06:12:35;;;;;;;1.00;1.00;;;;;;;45.79;5.88;99244.41;5053316;28;20927;-54
2021/07/22 06:15:01;;;;;;;1.00;0.70;;;;;;;45.08;6.58;99251.94;5053478;28;20122;-54
2021/07/22 06:17:26;;;;;;;1.50;1.10;;;;;;;44.31;7.09;99237.31;5052988;28;20028;-50
2021/07/22 06:19:52;;;;;;;1.63;0.55;;;;;;;44.32;7.05;99230.47;5053378;28;20037;-54
2021/07/22 06:22:18;;;;;;;3.28;0.80;;;;;;;43.77;6.47;99235.97;5051080;28;20106;-55
2021/07/22 06:24:44;;;;;;;3.33;0.82;;;;;;;44.42;6.43;99241.22;5053487;28;20025;-54
2021/07/22 06:27:12;;;;;;;0.85;0.60;;;;;;;45.82;6.26;99255.81;5052516;28;20083;-53
2021/07/22 06:29:39;;;;;;;0.98;0.80;;;;;;;46.43;5.13;99260.81;5051254;28;20056;-55
2021/07/22 06:32:04;;;;;;;1.67;0.73;;;;;;;47.03;4.69;99247.06;5049846;28;20091;-54
2021/07/22 06:34:30;;;;;;;3.17;0.70;;;;;;;47.85;3.93;99243.50;5052025;28;20025;-52
2021/07/22 06:36:55;;;;;;;1.23;0.70;;;;;;;48.31;3.49;99250.75;5053584;28;20535;-53
2021/07/22 06:39:21;;;;;;;2.45;0.73;;;;;;;48.84;3.33;99240.13;5053084;28;20032;-51
2021/07/22 06:41:46;;;;;;;2.38;0.70;;;;;;;49.47;2.83;99247.63;5053236;28;20090;-52
2021/07/22 06:44:12;;;;;;;1.58;0.70;;;;;;;49.85;2.43;99248.88;5053699;28;20112;-53
2021/07/22 06:46:37;;;;;;;1.75;0.80;;;;;;;49.05;2.47;99245.06;5051995;28;20032;-53
2021/07/22 06:49:03;;;;;;;0.82;0.80;;;;;;;48.81;2.64;99244.56;5051893;28;20025;-53
2021/07/22 06:51:28;;;;;;;0.93;0.70;;;;;;;48.19;3.09;99243.38;5052341;28;20029;-53
2021/07/22 06:53:54;;;;;;;4.15;0.73;;;;;;;48.12;2.82;99243.34;5053135;28;20025;-52
2021/07/22 06:56:20;;;;;;;2.65;0.75;;;;;;;48.35;3.23;99239.41;5053104;28;20039;-48
2021/07/22 06:58:47;;;;;;;2.67;0.80;;;;;;;48.57;3.43;99246.06;5046978;28;20032;-51
2021/07/22 07:01:13;;;;;;;3.03;0.70;;;;;;;48.36;3.19;99247.53;5042896;28;20041;-52
2021/07/22 07:03:39;;;;;;;0.73;0.70;;;;;;;47.99;3.12;99240.78;5039921;28;20044;-49
2021/07/22 07:06:04;;;;;;;0.88;0.80;;;;;;;47.96;3.47;99237.91;5040261;28;20032;-51
2021/07/22 07:08:30;;;;;;;2.08;0.65;;;;;;;47.05;3.95;99241.84;5040386;28;20086;-52
2021/07/22 07:10:55;;;;;;;3.47;1.02;;;;;;;46.32;3.52;99204.06;5041919;28;20111;-52
2021/07/22 07:13:20;;;;;;;1.63;0.60;;;;;;;46.75;3.56;99226.50;5040428;28;20056;-53
2021/07/22 07:15:46;;;;;;;2.30;0.90;;;;;;;46.73;3.80;99237.38;5041672;28;20491;-52
2021/07/22 07:18:11;;;;;;;1.55;0.77;;;;;;;46.96;4.22;99233.66;5033758;28;20063;-54
2021/07/22 07:20:37;;;;;;;1.58;0.75;;;;;;;47.93;3.75;99238.69;5031233;28;20086;-54
2021/07/22 07:23:02;;;;;;;0.90;0.80;;;;;;;49.13;3.51;99214.63;5032161;28;20037;-59
2021/07/22 07:25:28;;;;;;;1.38;1.10;;;;;;;50.02;2.70;99226.56;5033456;28;20060;-58
2021/07/22 07:27:53;;;;;;;2.15;0.80;;;;;;;50.67;2.44;99237.03;5040691;28;20510;-59
2021/07/22 07:30:20;;;;;;;1.85;1.00;;;;;;;51.02;2.38;99243.00;5039276;28;20048;-58
2021/07/22 07:32:47;;;;;;;1.38;1.00;;;;;;;51.46;2.24;99250.06;5038429;28;20107;-58
2021/07/22 07:35:13;;;;;;;2.22;1.17;;;;;;;51.55;2.42;99236.16;5040992;28;20021;-59
2021/07/22 07:37:38;;;;;;;1.25;1.23;;;;;;;51.66;1.87;99232.44;5034390;28;20045;-60
2021/07/22 07:40:04;;;;;;;1.67;1.20;;;;;;;51.60;2.28;99240.59;5031339;28;20025;-60
2021/07/22 07:42:30;;;;;;;1.92;1.17;;;;;;;51.25;2.52;99225.34;5041690;28;20393;-59
2021/07/22 07:44:55;;;;;;;3.10;1.17;;;;;;;50.55;2.46;99232.56;5045069;28;20112;-58
2021/07/22 07:47:21;;;;;;;4.22;1.25;;;;;;;50.04;2.71;99226.97;5031054;28;20110;-59
2021/07/22 07:49:47;;;;;;;1.45;1.30;;;;;;;50.57;2.71;99230.09;5030362;28;20030;-59
2021/07/22 07:52:12;;;;;;;1.50;1.10;;;;;;;50.84;2.28;99223.91;5047777;28;20033;-60
2021/07/22 07:54:38;;;;;;;1.65;1.10;;;;;;;50.63;2.72;99217.09;5043028;28;20468;-60
2021/07/22 07:57:03;;;;;;;1.77;1.20;;;;;;;50.32;2.61;99225.31;5039028;28;20032;-59
2021/07/22 07:59:29;;;;;;;4.40;1.38;;;;;;;50.42;2.80;99229.34;5051280;28;20111;-60
2021/07/22 08:01:54;;;;;;;1.73;1.05;;;;;;;50.47;2.76;99220.38;5050098;28;20461;-59
2021/07/22 08:04:20;;;;;;;5.13;1.40;;;;;;;50.68;2.25;99219.53;5051064;28;20106;-58
2021/07/22 08:06:45;;;;;;;1.40;1.30;;;;;;;50.63;2.25;99225.63;5049838;28;20376;-59
2021/07/22 08:09:10;;;;;;;1.40;1.30;;;;;;;49.92;2.50;99225.34;5050799;28;20182;-59
2021/07/22 08:11:36;;;;;;;1.98;1.42;;;;;;;49.25;3.08;99217.16;5050831;28;20040;-60
2021/07/22 08:14:01;;;;;;;1.98;1.10;;;;;;;48.80;3.28;99225.09;5050247;28;20483;-59
2021/07/22 08:16:27;;;;;;;2.08;1.10;;;;;;;48.56;3.60;99225.38;5050973;28;20061;-59
2021/07/22 08:18:52;;;;;;;1.30;0.90;;;;;;;48.29;3.14;99224.78;5050771;28;20025;-60
2021/07/22 08:21:18;;;;;;;2.70;1.13;;;;;;;47.68;3.49;99227.94;5050930;28;20082;-59
2021/07/22 08:23:43;;;;;;;2.10;0.80;;;;;;;46.50;3.97;99226.97;5051431;28;20029;-58
2021/07/22 08:26:09;;;;;;;2.67;1.00;;;;;;;43.93;5.67;99221.88;5051178;28;20028;-60
2021/07/22 08:28:35;;;;;;;0.93;0.65;;;;;;;41.16;7.31;99223.84;5050593;28;20072;-59
2021/07/22 08:31:01;;;;;;;4.18;1.10;;;;;;;38.60;8.97;99232.31;5051549;28;20040;-60
2021/07/22 08:33:27;;;;;;;2.38;0.80;;;;;;;36.03;11.05;99230.00;5050862;28;20098;-60
2021/07/22 08:35:52;;;;;;;1.30;0.65;;;;;;;33.71;13.36;99226.59;5050069;28;20393;-60
2021/07/22 08:38:18;;;;;;;1.92;0.60;;;;;;;31.99;15.05;99225.97;5050023;28;20442;-59
2021/07/22 08:40:43;;;;;;;3.83;0.80;;;;;;;30.48;16.39;99236.91;5051134;28;20098;-59
2021/07/22 08:43:09;;;;;;;0.88;0.57;;;;;;;29.48;17.37;99242.09;5050600;28;20037;-58
2021/07/22 08:45:35;;;;;;;1.35;0.55;;;;;;;28.69;18.34;99226.97;5049762;28;20041;-58
2021/07/22 08:48:00;;;;;;;1.55;0.50;;;;;;;28.14;19.05;99229.63;5050821;28;20032;-59
2021/07/22 08:50:27;;;;;;;0.90;0.40;;;;;;;27.77;19.72;99242.84;5046198;28;20113;-59
2021/07/22 08:52:52;;;;;;;1.15;0.60;;;;;;;27.47;19.32;99235.78;5036384;28;20082;-57
2021/07/22 08:55:19;;;;;;;0.85;0.57;;;;;;;27.15;20.20;99247.34;5026674;28;20132;-56
2021/07/22 08:57:45;;;;;;;1.60;0.70;;;;;;;26.82;20.09;99245.31;5030262;28;20029;-60
2021/07/22 09:00:11;;;;;;;1.23;0.60;;;;;;;26.64;20.48;99247.19;5031213;28;20021;-58
2021/07/22 09:02:37;;;;;;;3.15;0.55;;;;;;;26.52;20.78;99249.97;5050603;28;20129;-57
2021/07/22 09:05:07;;;;;;;1.67;0.75;;;;;;;26.49;20.77;99244.97;5050454;28;20119;-58
2021/07/22 09:07:33;;;;;;;3.83;0.80;;;;;;;26.30;21.65;99247.06;5050290;28;20178;-57
2021/07/22 09:10:04;;;;;;;4.18;0.68;;;;;;;26.33;21.35;99247.38;5050662;28;20486;-55
2021/07/22 09:12:49;;;;;;;0.90;0.60;;;;;;;26.28;20.81;99249.19;5053081;28;20150;-56
2021/07/22 09:15:29;;;;;;;1.70;0.90;;;;;;;26.09;20.68;99243.84;5054440;28;20403;-57
2021/07/22 09:17:55;;;;;;;2.55;0.60;;;;;;;25.75;21.13;99249.09;5054874;28;20021;-56
2021/07/22 09:20:34;;;;;;;2.90;0.98;;;;;;;25.74;20.75;99261.13;5054650;28;20087;-56
2021/07/22 09:23:04;;;;;;;1.00;0.50;;;;;;;25.35;21.05;99225.91;5054358;28;20040;-52
2021/07/22 09:25:38;;;;;;;0.73;0.45;;;;;;;25.55;20.76;99263.97;5054097;28;20037;-55
2021/07/22 09:28:04;;;;;;;1.75;0.70;;;;;;;25.43;20.96;99254.88;5054128;28;20072;-58
2021/07/22 09:30:30;;;;;;;1.77;0.50;;;;;;;25.41;21.38;99246.88;5040922;28;20385;-55
2021/07/22 09:32:56;;;;;;;2.83;0.60;;;;;;;25.37;21.10;99252.03;5034195;28;20374;-52
2021/07/22 09:35:22;;;;;;;2.10;0.55;;;;;;;25.36;21.30;99254.97;5033932;28;20112;-58
2021/07/22 09:37:49;;;;;;;2.78;0.95;;;;;;;25.36;21.47;99244.88;5034013;28;20029;-55
2021/07/22 09:40:26;;;;;;;2.88;0.70;;;;;;;25.35;21.52;99256.06;5034242;28;20025;-52
2021/07/22 09:42:54;;;;;;;1.55;0.85;;;;;;;25.29;21.72;99255.06;5034062;28;20069;-58
2021/07/22 09:45:23;;;;;;;2.05;1.00;;;;;;;25.28;21.63;99253.41;5033712;28;20033;-59
2021/07/22 09:47:50;;;;;;;3.67;1.00;;;;;;;25.23;21.45;99258.78;5047259;28;20060;-59
2021/07/22 09:50:17;;;;;;;1.48;1.00;;;;;;;25.18;21.72;99250.44;5033906;28;20473;-60
2021/07/22 09:52:46;;;;;;;3.05;0.70;;;;;;;25.05;21.92;99260.50;5051559;28;20208;-58
2021/07/22 09:55:26;;;;;;;1.33;0.65;;;;;;;25.01;21.79;99256.56;5053815;28;20392;-60
2021/07/22 09:57:54;;;;;;;2.28;0.60;;;;;;;24.78;21.92;99255.41;5053164;28;20366;-62
2021/07/22 10:00:20;;;;;;;1.88;0.60;;;;;;;24.64;22.05;99253.91;5053344;28;20122;-58
2021/07/22 10:02:46;;;;;;;4.05;0.63;;;;;;;24.27;21.85;99219.22;5054028;28;20032;-57
2021/07/22 10:05:12;;;;;;;0.82;0.38;;;;;;;24.21;22.20;99231.91;5053752;28;20025;-58
2021/07/22 10:07:40;;;;;;;3.22;0.50;;;;;;;24.28;22.64;99248.22;5053718;28;20037;-57
2021/07/22 10:10:06;;;;;;;1.33;0.60;;;;;;;24.16;22.40;99239.09;5054149;28;20025;-57
2021/07/22 10:12:34;;;;;;;1.00;0.52;;;;;;;24.32;22.28;99251.31;5053218;28;20464;-56
2021/07/22 10:15:01;;;;;;;1.40;0.80;;;;;;;24.32;21.75;99237.66;5053055;28;20048;-54
2021/07/22 10:17:32;;;;;;;4.63;0.60;;;;;;;24.45;21.69;99245.72;5053847;28;20029;-55
2021/07/22 10:20:02;;;;;;;2.88;0.70;;;;;;;24.54;21.71;99248.97;5053021;28;20388;-55
2021/07/22 10:22:29;;;;;;;3.38;0.70;;;;;;;24.59;21.60;99240.91;5052846;28;20032;-57
2021/07/22 10:24:55;;;;;;;1.45;0.47;;;;;;;24.61;21.72;99235.22;5053270;28;20485;-55
2021/07/22 10:27:21;;;;;;;2.60;0.70;;;;;;;24.69;22.16;99240.34;5053558;28;20024;-57
2021/07/22 10:29:47;;;;;;;0.85;0.50;;;;;;;24.66;22.74;99225.22;5053373;28;20045;-55
2021/07/22 10:32:17;;;;;;;2.58;0.52;;;;;;;24.72;22.94;99233.59;5050202;28;20542;-58
2021/07/22 10:34:44;;;;;;;0.88;0.47;;;;;;;24.66;23.05;99224.41;5053687;28;20041;-57
2021/07/22 10:37:10;;;;;;;0.73;0.52;;;;;;;24.63;23.05;99230.34;5034850;28;20116;-58
2021/07/22 10:40:10;;;;;;;2.20;0.60;;;;;;;24.96;22.55;99237.25;5032867;28;20465;-58
2021/07/22 10:42:39;;;;;;;2.65;0.40;;;;;;;24.80;22.44;99236.84;5033511;28;20033;-58
2021/07/22 10:45:25;;;;;;;1.05;0.40;;;;;;;24.70;22.87;99236.53;5033121;28;20168;-59
2021/07/22 10:48:03;;;;;;;4.38;0.50;;;;;;;24.59;22.79;99237.31;5032833;28;20423;-58
2021/07/22 10:50:39;;;;;;;0.38;0.38;;;;;;;24.42;23.40;99240.69;5033047;28;20031;-58
2021/07/22 10:53:05;;;;;;;1.58;0.40;;;;;;;24.31;23.57;99231.38;5033057;28;20064;-58
2021/07/22 10:55:40;;;;;;;2.33;0.52;;;;;;;24.51;23.42;99225.63;5033164;28;20072;-57
2021/07/22 10:58:34;;;;;;;1.75;0.50;;;;;;;24.68;22.80;99221.41;5033289;28;20030;-56
2021/07/22 11:01:03;;;;;;;0.60;0.50;;;;;;;24.78;23.01;99232.69;5032641;28;20041;-55
2021/07/22 11:03:35;;;;;;;1.85;0.43;;;;;;;25.11;22.36;99236.00;5032508;28;20026;-56
2021/07/22 11:06:07;;;;;;;1.58;0.40;;;;;;;25.20;22.32;99232.69;5033040;28;20381;-57
2021/07/22 11:08:39;;;;;;;4.38;0.60;;;;;;;25.26;22.06;99244.59;5031474;28;20052;-59
2021/07/22 11:11:07;;;;;;;1.75;0.43;;;;;;;25.20;22.00;99240.06;5032346;28;20508;-58
2021/07/22 11:13:38;;;;;;;1.73;0.38;;;;;;;25.21;22.24;99231.63;5032629;28;20550;-59
2021/07/22 11:16:08;;;;;;;2.30;0.45;;;;;;;25.10;22.38;99239.81;5033056;28;20029;-58
2021/07/22 11:18:39;;;;;;;0.77;0.47;;;;;;;25.04;22.56;99234.19;5032570;28;20037;-59
2021/07/22 11:21:06;;;;;;;1.58;0.68;;;;;;;24.94;22.78;99231.19;5042358;28;20057;-60
2021/07/22 11:23:32;;;;;;;1.85;0.30;;;;;;;24.99;23.09;99234.06;5049276;28;20086;-58
2021/07/22 11:25:57;;;;;;;1.98;0.30;;;;;;;24.99;23.15;99227.75;5052449;28;20021;-57
2021/07/22 11:28:25;;;;;;;0.60;0.57;;;;;;;24.92;23.36;99245.09;5052017;28;20059;-59
2021/07/22 11:31:07;;;;;;;4.10;0.50;;;;;;;25.01;22.76;99242.06;5052416;28;20059;-56
2021/07/22 11:33:37;;;;;;;2.50;0.32;;;;;;;24.87;23.04;99233.19;5031854;28;20069;-57
2021/07/22 11:36:05;;;;;;;4.25;0.55;;;;;;;24.73;23.17;99227.88;5031997;28;20473;-58